Time;durP1;ratioP1;P1;durP2;ratioP2;P2;SDS_P1;SDS_P2;PMS_P1;PMS_P2;Temp;Humidity;BMP_temperature;BMP_pressure;BME280_temperature;BME280_humidity;BME280_pressure;Samples;Min_cycle;Max_cycle;Signal;HPM_P1;HPM_P2
2022/02/19 00:01:30;;;;;;;8.68;3.90;;;;;;;6.50;58.07;91936.31;2048754;70;20181;-73
2022/02/19 00:03:57;;;;;;;6.75;4.25;;;;;;;6.58;57.25;91950.81;2048970;70;20139;-73
2022/02/19 00:06:23;;;;;;;8.63;4.32;;;;;;;6.25;58.47;91962.72;2061883;69;20154;-73
2022/02/19 00:08:48;;;;;;;6.20;3.83;;;;;;;6.34;58.89;91955.59;2064388;69;20153;-73
2022/02/19 00:11:14;;;;;;;7.47;3.97;;;;;;;6.53;57.60;91961.00;2065145;69;20182;-73
2022/02/19 00:13:40;;;;;;;9.23;4.25;;;;;;;6.47;58.17;91957.84;2065087;69;20180;-73
2022/02/19 00:16:06;;;;;;;7.38;4.05;;;;;;;6.66;57.13;91978.56;2064972;69;20668;-74
2022/02/19 00:18:33;;;;;;;12.63;4.20;;;;;;;6.70;57.15;91976.75;2064511;69;20140;-72
2022/02/19 00:20:59;;;;;;;9.20;4.10;;;;;;;6.65;57.55;91986.22;2064347;69;20160;-73
2022/02/19 00:23:28;;;;;;;8.75;4.78;;;;;;;6.69;56.80;91988.53;2066729;69;20167;-72
2022/02/19 00:25:54;;;;;;;7.05;3.97;;;;;;;6.70;57.87;91981.63;2068041;69;20616;-72
2022/02/19 00:28:20;;;;;;;7.93;3.60;;;;;;;6.76;57.34;92007.16;2068206;69;20303;-72
2022/02/19 00:30:46;;;;;;;5.32;3.30;;;;;;;6.81;57.27;92006.81;2067708;69;20144;-72
2022/02/19 00:33:12;;;;;;;7.05;3.85;;;;;;;6.24;59.64;92002.47;2068193;69;20141;-73
2022/02/19 00:35:37;;;;;;;9.40;4.10;;;;;;;6.42;59.32;92008.50;2068398;69;20620;-71
2022/02/19 00:38:03;;;;;;;7.55;4.13;;;;;;;6.67;58.03;92017.09;2067825;69;20156;-70
2022/02/19 00:40:29;;;;;;;8.88;4.32;;;;;;;6.58;58.32;92023.50;2068333;69;20628;-71
2022/02/19 00:42:54;;;;;;;9.95;4.13;;;;;;;6.69;58.35;92024.88;2067688;69;20236;-72
2022/02/19 00:45:20;;;;;;;6.47;4.20;;;;;;;6.59;58.87;92024.97;2068247;69;20175;-72
2022/02/19 00:47:45;;;;;;;10.68;4.20;;;;;;;6.59;59.01;92039.69;2068236;69;20230;-73
2022/02/19 00:50:11;;;;;;;8.25;4.30;;;;;;;6.71;58.16;92030.63;2068190;69;20144;-72
2022/02/19 00:52:38;;;;;;;8.68;3.88;;;;;;;6.75;58.90;92054.00;2068288;69;20629;-73
2022/02/19 00:55:04;;;;;;;6.00;4.00;;;;;;;6.76;58.64;92049.84;2068263;69;20153;-72
2022/02/19 00:57:29;;;;;;;10.10;3.72;;;;;;;6.88;57.72;92066.69;2067615;69;20644;-72
2022/02/19 00:59:55;;;;;;;9.00;4.20;;;;;;;6.68;58.42;92062.59;2067652;69;20194;-72
2022/02/19 01:02:21;;;;;;;7.82;4.30;;;;;;;6.75;59.24;92079.19;2068087;69;20179;-71
2022/02/19 01:04:56;;;;;;;9.45;4.30;;;;;;;6.63;60.39;92081.19;2068210;69;20540;-72
2022/02/19 01:07:24;;;;;;;10.50;4.25;;;;;;;6.85;59.26;92087.47;2068193;69;20166;-72
2022/02/19 01:09:49;;;;;;;7.35;3.75;;;;;;;6.91;59.66;92087.88;2067606;69;20600;-72
2022/02/19 01:12:15;;;;;;;6.93;3.67;;;;;;;7.07;58.28;92083.31;2068200;69;20150;-72
2022/02/19 01:14:41;;;;;;;7.47;4.30;;;;;;;6.71;59.98;92109.69;2064812;69;20172;-72
2022/02/19 01:17:06;;;;;;;8.55;4.97;;;;;;;6.80;60.08;92133.31;2068044;69;20149;-72
2022/02/19 01:19:32;;;;;;;9.57;4.60;;;;;;;6.98;59.15;92130.97;2068106;69;20236;-72
2022/02/19 01:21:58;;;;;;;7.93;4.15;;;;;;;7.05;59.52;92121.63;2067701;69;20148;-72
2022/02/19 01:24:24;;;;;;;6.57;3.35;;;;;;;7.11;60.18;92136.03;2068245;69;20141;-72
2022/02/19 01:26:56;;;;;;;7.80;3.20;;;;;;;7.14;59.72;92143.94;2067634;69;20160;-72
2022/02/19 01:29:22;;;;;;;4.00;2.95;;;;;;;7.16;63.10;92148.94;2067461;69;20172;-71
2022/02/19 01:31:48;;;;;;;3.35;2.00;;;;;;;7.33;62.69;92151.44;2068051;69;20171;-71
2022/02/19 01:34:14;;;;;;;11.70;6.47;;;;;;;7.13;60.81;92148.06;2067554;69;20153;-72
2022/02/19 01:36:39;;;;;;;8.70;4.57;;;;;;;7.12;61.68;92157.06;2068102;69;20148;-72
2022/02/19 01:39:05;;;;;;;9.68;4.30;;;;;;;7.05;60.78;92155.19;2068126;69;20214;-71
2022/02/19 01:41:31;;;;;;;9.20;4.13;;;;;;;7.09;61.07;92163.88;2068102;69;20250;-70
2022/02/19 01:44:09;;;;;;;7.85;4.05;;;;;;;7.02;63.65;92165.56;2067597;69;20255;-72
2022/02/19 01:46:36;;;;;;;8.80;3.42;;;;;;;7.15;61.02;92167.06;2068026;69;20140;-72
2022/02/19 01:49:02;;;;;;;8.98;3.85;;;;;;;7.06;62.21;92171.41;2067582;69;20183;-72
2022/02/19 01:51:31;;;;;;;6.00;3.53;;;;;;;7.09;62.07;92164.59;2067398;69;20137;-71
2022/02/19 01:54:07;;;;;;;6.47;3.30;;;;;;;7.13;62.28;92178.84;2067525;69;20214;-71
2022/02/19 01:56:51;;;;;;;7.28;3.53;;;;;;;7.21;62.89;92187.06;2068524;69;20167;-72
2022/02/19 01:59:46;;;;;;;7.00;3.72;;;;;;;7.27;62.89;92178.31;2058917;69;20180;-72
2022/02/19 02:02:24;;;;;;;5.85;3.30;;;;;;;7.35;60.76;92164.84;2065286;69;20493;-71
2022/02/19 02:05:01;;;;;;;3.90;2.40;;;;;;;7.26;63.67;92174.78;2068020;69;20678;-71
2022/02/19 02:07:27;;;;;;;4.47;2.20;;;;;;;7.23;63.57;92175.97;2067923;69;20137;-72
2022/02/19 02:09:52;;;;;;;4.13;2.53;;;;;;;7.26;64.05;92166.38;2058349;69;20158;-71
2022/02/19 02:12:19;;;;;;;4.38;2.50;;;;;;;7.20;63.27;92168.06;2065301;69;20180;-72
2022/02/19 02:14:58;;;;;;;5.78;3.60;;;;;;;7.16;63.73;92165.72;2065344;69;20237;-70
2022/02/19 02:17:37;;;;;;;6.45;3.45;;;;;;;6.98;65.34;92176.47;2064361;69;20174;-70
2022/02/19 02:20:03;;;;;;;6.53;3.90;;;;;;;7.03;64.90;92171.88;2060542;69;20142;-70
2022/02/19 02:22:28;;;;;;;10.23;4.10;;;;;;;6.97;65.35;92180.63;2061921;69;20153;-73
2022/02/19 02:24:54;;;;;;;6.53;3.75;;;;;;;7.07;65.37;92186.88;2049062;70;20135;-72
2022/02/19 02:27:33;;;;;;;5.28;3.30;;;;;;;7.14;65.16;92194.31;2061874;69;20155;-72
2022/02/19 02:29:58;;;;;;;4.80;3.10;;;;;;;7.05;64.42;92194.38;2061817;69;20143;-70
2022/02/19 02:32:31;;;;;;;6.05;3.72;;;;;;;6.81;65.96;92199.13;2048923;70;20218;-72
2022/02/19 02:34:57;;;;;;;5.70;3.60;;;;;;;6.77;67.14;92207.97;2061920;69;20287;-73
2022/02/19 02:37:30;;;;;;;6.07;3.20;;;;;;;7.06;64.84;92215.47;2061856;69;20150;-71
2022/02/19 02:39:56;;;;;;;5.88;3.33;;;;;;;6.95;65.85;92219.66;2061821;69;20154;-73
2022/02/19 02:42:28;;;;;;;5.80;3.15;;;;;;;6.96;65.75;92225.97;2061907;69;20162;-72
2022/02/19 02:44:54;;;;;;;6.18;3.35;;;;;;;6.86;67.09;92226.03;2048916;69;20144;-72
2022/02/19 02:47:24;;;;;;;4.90;3.03;;;;;;;7.06;65.75;92233.00;2059019;69;20131;-71
2022/02/19 02:49:51;;;;;;;4.95;2.90;;;;;;;7.10;65.26;92243.69;2061936;69;20319;-72
2022/02/19 02:52:16;;;;;;;5.45;3.22;;;;;;;7.00;67.27;92246.56;2049463;70;20174;-72
2022/02/19 02:54:42;;;;;;;3.63;2.20;;;;;;;6.99;65.84;92253.50;2065292;69;20216;-73
2022/02/19 02:57:09;;;;;;;3.55;2.25;;;;;;;7.04;66.49;92257.31;2065251;69;20157;-74
2022/02/19 02:59:35;;;;;;;0.90;0.70;;;;;;;7.10;62.75;92249.28;2065282;69;20731;-72
2022/02/19 03:02:00;;;;;;;0.50;0.43;;;;;;;7.47;61.72;92255.25;2063097;69;20234;-73
2022/02/19 03:04:26;;;;;;;0.15;0.15;;;;;;;7.36;60.66;92261.50;2061922;69;20134;-72
2022/02/19 03:06:52;;;;;;;0.40;0.30;;;;;;;7.53;60.00;92274.50;2063664;69;20245;-72
2022/02/19 03:09:21;;;;;;;0.20;0.10;;;;;;;7.54;60.11;92285.09;2065101;69;20178;-73
2022/02/19 03:11:49;;;;;;;0.20;0.20;;;;;;;7.35;65.27;92283.16;2052381;70;20134;-72
2022/02/19 03:14:15;;;;;;;0.13;0.13;;;;;;;7.35;64.90;92277.56;2052350;70;20150;-72
2022/02/19 03:16:41;;;;;;;0.30;0.30;;;;;;;7.26;66.05;92272.78;2065114;69;20211;-72
2022/02/19 03:19:06;;;;;;;0.13;0.13;;;;;;;7.24;67.47;92285.88;2051021;70;20154;-71
2022/02/19 03:21:35;;;;;;;0.22;0.17;;;;;;;7.29;65.51;92282.78;2061828;69;20279;-72
2022/02/19 03:24:00;;;;;;;0.63;0.32;;;;;;;7.45;62.81;92279.56;2061883;69;20749;-74
2022/02/19 03:26:27;;;;;;;0.32;0.20;;;;;;;7.40;64.80;92275.75;2061911;69;20212;-73
2022/02/19 03:28:55;;;;;;;0.40;0.30;;;;;;;7.35;64.71;92291.56;2061853;69;20155;-73
2022/02/19 03:31:23;;;;;;;1.63;0.80;;;;;;;7.19;64.10;92296.09;2061728;69;20208;-71
2022/02/19 03:33:52;;;;;;;2.67;0.80;;;;;;;7.11;64.92;92307.50;2061856;69;20169;-72
2022/02/19 03:36:22;;;;;;;1.15;0.70;;;;;;;7.24;65.42;92311.09;2061886;69;20170;-73
2022/02/19 03:38:48;;;;;;;0.45;0.30;;;;;;;7.17;66.05;92306.44;2061766;69;20602;-71
2022/02/19 03:41:23;;;;;;;0.15;0.15;;;;;;;7.21;64.55;92304.63;2061746;69;20509;-72
2022/02/19 03:43:50;;;;;;;0.20;0.20;;;;;;;7.24;65.96;92313.88;2061869;69;20143;-72
2022/02/19 03:46:15;;;;;;;0.30;0.28;;;;;;;7.25;64.28;92313.31;2061766;69;20158;-71
2022/02/19 03:48:55;;;;;;;0.50;0.30;;;;;;;7.32;63.66;92314.44;2059299;69;20139;-72
2022/02/19 03:51:23;;;;;;;0.30;0.25;;;;;;;7.28;64.35;92309.28;2061811;69;20261;-71
2022/02/19 03:53:49;;;;;;;0.28;0.13;;;;;;;7.21;64.16;92306.72;2045686;69;20232;-72
2022/02/19 03:56:19;;;;;;;0.10;0.10;;;;;;;7.24;64.80;92314.66;2061726;69;20153;-72
2022/02/19 03:58:46;;;;;;;0.10;0.10;;;;;;;7.20;64.32;92331.16;2061824;69;20187;-72
2022/02/19 04:01:13;;;;;;;0.10;0.10;;;;;;;7.08;66.36;92333.16;2061630;69;20509;-72
2022/02/19 04:03:39;;;;;;;0.20;0.20;;;;;;;7.18;63.87;92338.69;2061762;69;20166;-71
2022/02/19 04:06:07;;;;;;;0.30;0.30;;;;;;;7.13;64.16;92340.47;2061794;69;20143;-72
2022/02/19 04:08:32;;;;;;;1.50;0.25;;;;;;;7.18;63.87;92341.50;2061736;69;20165;-71
2022/02/19 04:10:58;;;;;;;1.15;0.10;;;;;;;7.11;63.76;92357.88;2061710;69;20154;-72
2022/02/19 04:13:24;;;;;;;0.13;0.13;;;;;;;7.19;63.44;92354.16;2061730;69;20201;-71
2022/02/19 04:16:04;;;;;;;1.27;0.40;;;;;;;7.15;62.73;92365.81;2059206;69;20162;-71
2022/02/19 04:18:33;;;;;;;2.22;1.35;;;;;;;7.12;62.22;92364.94;2061552;69;20154;-71
2022/02/19 04:20:58;;;;;;;3.40;0.90;;;;;;;7.10;63.15;92362.03;2061782;69;20166;-70
2022/02/19 04:23:24;;;;;;;0.93;0.43;;;;;;;7.04;63.96;92364.38;2061701;69;20151;-71
2022/02/19 04:25:54;;;;;;;0.20;0.20;;;;;;;6.97;63.62;92359.00;2061784;69;20166;-72
2022/02/19 04:28:26;;;;;;;0.70;0.60;;;;;;;6.89;64.28;92364.75;2061741;69;20162;-71
2022/02/19 04:30:53;;;;;;;1.52;0.68;;;;;;;6.92;63.57;92360.78;2061671;69;20260;-72
2022/02/19 04:33:20;;;;;;;0.60;0.60;;;;;;;6.91;64.12;92364.16;2061602;69;20166;-72
2022/02/19 04:35:50;;;;;;;0.30;0.30;;;;;;;6.69;65.20;92372.50;2061827;69;20147;-72
2022/02/19 04:38:20;;;;;;;0.30;0.30;;;;;;;6.80;64.48;92373.91;2048708;70;20208;-72
2022/02/19 04:40:46;;;;;;;1.42;0.68;;;;;;;6.68;64.47;92378.66;2061716;69;20525;-72
2022/02/19 04:43:12;;;;;;;1.02;0.70;;;;;;;6.68;64.70;92389.84;2061664;69;20210;-72
2022/02/19 04:45:40;;;;;;;3.70;0.60;;;;;;;6.68;64.43;92395.44;2061628;69;20205;-72
2022/02/19 04:48:09;;;;;;;0.50;0.50;;;;;;;6.71;64.87;92400.59;2061543;69;20197;-72
2022/02/19 04:50:35;;;;;;;2.35;0.50;;;;;;;6.66;64.41;92398.13;2048724;70;20674;-73
2022/02/19 04:53:04;;;;;;;0.40;0.40;;;;;;;6.76;63.75;92401.63;2061594;69;20170;-72
2022/02/19 04:55:34;;;;;;;0.20;0.20;;;;;;;6.78;63.62;92404.53;2061696;69;20145;-71
2022/02/19 04:58:07;;;;;;;0.80;0.40;;;;;;;6.75;63.29;92405.75;2061869;69;20134;-72
2022/02/19 05:00:34;;;;;;;3.80;1.30;;;;;;;6.40;64.36;92405.38;2065005;69;20142;-73
2022/02/19 05:03:18;;;;;;;2.22;1.10;;;;;;;6.51;64.26;92399.91;2063026;69;20150;-72
2022/02/19 05:05:52;;;;;;;1.45;1.08;;;;;;;6.50;64.38;92408.88;2065096;69;20573;-71
2022/02/19 05:08:19;;;;;;;3.05;1.90;;;;;;;6.49;64.46;92402.56;2065008;69;20653;-71
2022/02/19 05:10:46;;;;;;;7.57;3.00;;;;;;;6.18;65.76;92416.44;2052099;70;20158;-72
2022/02/19 05:13:16;;;;;;;4.55;3.13;;;;;;;6.34;64.69;92414.06;2064673;69;20292;-72
2022/02/19 05:15:43;;;;;;;2.00;1.50;;;;;;;6.33;64.14;92426.59;2062288;69;20166;-72
2022/02/19 05:18:36;;;;;;;2.00;1.20;;;;;;;6.35;64.23;92430.25;2064061;69;20570;-72
2022/02/19 05:21:01;;;;;;;2.28;1.20;;;;;;;6.24;64.82;92438.50;2054821;69;20580;-72
2022/02/19 05:23:35;;;;;;;3.53;1.10;;;;;;;6.12;65.06;92435.56;2063689;69;20519;-73
2022/02/19 05:26:01;;;;;;;1.42;0.93;;;;;;;6.26;64.60;92441.44;2064412;69;20497;-73
2022/02/19 05:28:27;;;;;;;6.80;1.90;;;;;;;6.08;64.66;92440.84;2052044;69;20151;-73
2022/02/19 05:30:53;;;;;;;5.07;2.97;;;;;;;6.17;64.22;92436.59;2065063;69;20218;-73
2022/02/19 05:33:39;;;;;;;2.97;1.90;;;;;;;5.86;66.95;92439.94;2053385;69;20157;-72
2022/02/19 05:36:06;;;;;;;6.00;2.08;;;;;;;5.90;66.44;92445.81;2065508;69;20670;-72
2022/02/19 05:38:33;;;;;;;5.72;1.95;;;;;;;5.95;66.47;92452.47;2065455;69;20147;-71
2022/02/19 05:40:59;;;;;;;3.92;2.03;;;;;;;5.97;66.10;92438.66;2064839;69;20613;-72
2022/02/19 05:43:25;;;;;;;6.53;2.47;;;;;;;5.97;66.68;92447.03;2064071;69;20162;-73
2022/02/19 05:45:51;;;;;;;3.35;1.60;;;;;;;6.06;65.54;92447.03;2064486;69;20715;-70
2022/02/19 05:48:19;;;;;;;4.13;1.60;;;;;;;5.95;66.17;92441.28;2065192;69;20621;-71
2022/02/19 05:50:54;;;;;;;5.93;2.08;;;;;;;5.92;66.12;92448.81;2065680;69;20272;-72
2022/02/19 05:53:38;;;;;;;2.42;1.33;;;;;;;5.77;66.28;92455.38;2052402;70;20150;-72
2022/02/19 05:56:04;;;;;;;5.88;1.33;;;;;;;5.80;66.40;92461.84;2065137;69;20520;-72
2022/02/19 05:58:30;;;;;;;6.18;1.27;;;;;;;5.80;64.87;92464.63;2064029;69;20248;-72
2022/02/19 06:01:21;;;;;;;4.03;1.55;;;;;;;5.84;65.63;92471.25;2048218;70;20285;-72
2022/02/19 06:03:52;;;;;;;3.05;1.20;;;;;;;5.78;66.01;92470.81;2063269;69;20247;-71
2022/02/19 06:06:21;;;;;;;5.75;1.50;;;;;;;5.32;67.00;92468.78;2064434;69;20154;-72
2022/02/19 06:08:47;;;;;;;3.88;1.48;;;;;;;5.44;66.98;92474.53;2063871;69;20576;-72
2022/02/19 06:11:13;;;;;;;5.72;1.58;;;;;;;5.59;66.00;92476.38;2064431;69;20154;-72
2022/02/19 06:13:57;;;;;;;5.68;2.28;;;;;;;5.68;66.03;92480.47;2051753;70;20153;-72
2022/02/19 06:16:25;;;;;;;4.38;1.65;;;;;;;5.71;65.80;92490.50;2064472;69;20172;-71
2022/02/19 06:19:01;;;;;;;4.20;1.58;;;;;;;5.70;65.06;92489.75;2064660;69;20177;-72
2022/02/19 06:21:26;;;;;;;3.35;1.40;;;;;;;5.70;64.67;92494.59;2064666;69;20239;-72
2022/02/19 06:23:52;;;;;;;3.97;2.13;;;;;;;5.45;66.10;92500.41;2065352;69;20612;-73
2022/02/19 06:26:18;;;;;;;4.07;1.83;;;;;;;5.65;65.02;92513.13;2065378;69;20153;-72
2022/02/19 06:29:04;;;;;;;4.85;3.00;;;;;;;5.50;65.63;92518.97;2056666;69;20613;-71
2022/02/19 06:31:31;;;;;;;6.35;3.65;;;;;;;5.63;64.83;92518.53;2065261;69;20166;-72
2022/02/19 06:33:57;;;;;;;4.63;2.25;;;;;;;5.83;64.30;92514.47;2065373;69;20172;-72
2022/02/19 06:36:23;;;;;;;3.63;2.00;;;;;;;5.77;64.28;92525.22;2065513;69;20235;-75
2022/02/19 06:38:51;;;;;;;4.28;2.40;;;;;;;5.82;64.22;92538.16;2065336;69;20173;-75
2022/02/19 06:41:23;;;;;;;23.23;13.35;;;;;;;5.34;66.27;92540.78;2065276;69;20185;-76
2022/02/19 06:44:09;;;;;;;30.95;17.80;;;;;;;5.60;66.03;92539.28;2065352;69;20126;-72
2022/02/19 06:46:37;;;;;;;38.35;19.35;;;;;;;5.70;66.16;92544.88;2065302;69;20199;-73
2022/02/19 06:49:03;;;;;;;33.75;17.70;;;;;;;5.84;64.57;92546.69;2052464;70;20181;-72
2022/02/19 06:51:35;;;;;;;27.05;14.63;;;;;;;5.89;65.44;92547.00;2065327;69;20144;-72
2022/02/19 06:54:00;;;;;;;19.23;9.38;;;;;;;5.89;65.55;92558.16;2065365;69;20146;-75
2022/02/19 06:56:27;;;;;;;17.67;9.93;;;;;;;6.04;63.77;92563.50;2065334;69;20146;-75
2022/02/19 06:58:59;;;;;;;23.33;12.65;;;;;;;5.89;64.60;92564.50;2065354;69;20142;-74
2022/02/19 07:01:27;;;;;;;24.38;12.90;;;;;;;5.85;65.42;92564.19;2065159;69;20239;-76
2022/02/19 07:03:58;;;;;;;22.42;12.13;;;;;;;5.96;65.11;92560.13;2065342;69;20224;-74
2022/02/19 07:06:42;;;;;;;17.33;9.32;;;;;;;5.85;65.25;92573.28;2052395;70;20189;-71
2022/02/19 07:09:08;;;;;;;21.20;12.10;;;;;;;6.06;64.44;92572.81;2067887;69;20156;-72
2022/02/19 07:11:33;;;;;;;21.52;11.75;;;;;;;6.11;64.98;92574.56;2068002;69;20232;-72
2022/02/19 07:13:59;;;;;;;18.00;9.95;;;;;;;6.07;65.70;92579.84;2068012;69;20139;-72
2022/02/19 07:16:25;;;;;;;16.95;9.82;;;;;;;6.19;65.43;92579.31;2067864;69;20238;-72
2022/02/19 07:18:52;;;;;;;17.60;9.50;;;;;;;6.15;65.49;92579.72;2067982;69;20182;-72
2022/02/19 07:21:19;;;;;;;19.80;9.85;;;;;;;6.00;65.95;92591.16;2068535;69;20324;-74
2022/02/19 07:23:46;;;;;;;16.10;8.05;;;;;;;6.02;65.31;92592.06;2067965;69;20156;-73
2022/02/19 07:26:15;;;;;;;17.20;9.50;;;;;;;6.34;64.12;92593.00;2068029;69;20584;-75
2022/02/19 07:28:44;;;;;;;21.02;8.90;;;;;;;6.44;65.22;92598.59;2068551;69;20241;-73
2022/02/19 07:31:09;;;;;;;14.90;8.77;;;;;;;6.35;65.04;92595.22;2067819;69;20207;-73
2022/02/19 07:33:36;;;;;;;14.63;8.60;;;;;;;6.42;64.83;92604.81;2067964;69;20148;-73
2022/02/19 07:36:07;;;;;;;12.50;6.68;;;;;;;6.25;64.57;92602.84;2067941;69;20137;-74
2022/02/19 07:38:34;;;;;;;13.05;7.65;;;;;;;6.41;64.02;92619.34;2067921;69;20145;-72
2022/02/19 07:41:00;;;;;;;21.05;8.27;;;;;;;6.40;63.94;92610.22;2067922;69;20149;-70
2022/02/19 07:43:47;;;;;;;27.27;12.10;;;;;;;6.22;64.51;92623.56;2064464;69;20621;-71
2022/02/19 07:46:29;;;;;;;14.23;7.53;;;;;;;6.51;62.34;92620.84;2067784;69;20176;-71
2022/02/19 07:58:17;;;;;;;17.88;8.38;;;;;;;6.36;64.51;92626.69;2068451;69;20141;-71
2022/02/19 08:00:30;;;;;;;6.82;3.70;;;;;;;6.66;60.10;92639.41;2067908;69;20141;-74
2022/02/19 08:02:58;;;;;;;8.70;3.60;;;;;;;6.68;60.19;92636.03;2067722;69;20182;-73
2022/02/19 08:05:24;;;;;;;7.18;3.60;;;;;;;6.64;60.16;92642.06;2067871;69;20592;-74
2022/02/19 08:07:51;;;;;;;7.43;3.83;;;;;;;6.52;60.70;92638.38;2067895;69;20653;-73
2022/02/19 08:10:17;;;;;;;7.97;4.40;;;;;;;6.56;60.87;92636.63;2067774;69;20165;-74
2022/02/19 08:12:43;;;;;;;8.85;4.82;;;;;;;6.51;61.59;92636.91;2068556;69;20504;-73
2022/02/19 08:15:08;;;;;;;8.55;4.40;;;;;;;6.59;61.66;92643.81;2068357;69;20163;-72
2022/02/19 08:17:34;;;;;;;6.93;3.05;;;;;;;6.71;61.42;92648.84;2068266;69;20574;-73
2022/02/19 08:19:59;;;;;;;4.90;2.95;;;;;;;6.63;61.83;92655.31;2068394;69;20140;-73
2022/02/19 08:22:25;;;;;;;14.80;7.50;;;;;;;6.61;61.63;92654.44;2067857;69;20241;-73
2022/02/19 08:24:51;;;;;;;19.80;10.20;;;;;;;6.67;62.14;92662.53;2068407;69;20153;-73
2022/02/19 08:27:16;;;;;;;17.55;8.43;;;;;;;6.76;62.54;92661.81;2068379;69;20139;-73
2022/02/19 08:29:42;;;;;;;16.73;8.65;;;;;;;6.88;61.82;92652.25;2068434;69;20254;-73
2022/02/19 08:32:08;;;;;;;14.35;8.02;;;;;;;6.86;60.96;92657.69;2068254;69;20171;-73
2022/02/19 08:34:33;;;;;;;18.98;7.90;;;;;;;7.23;59.71;92651.94;2068414;69;20143;-73
2022/02/19 08:36:59;;;;;;;10.50;6.10;;;;;;;7.46;59.09;92648.66;2068364;69;20524;-73
2022/02/19 08:39:25;;;;;;;16.38;9.35;;;;;;;7.55;60.17;92647.91;2068364;69;20588;-74
2022/02/19 08:41:51;;;;;;;15.27;8.85;;;;;;;7.42;60.19;92648.38;2068346;69;20692;-74
2022/02/19 08:44:17;;;;;;;15.93;10.10;;;;;;;7.57;59.21;92656.47;2068386;69;20144;-75
2022/02/19 08:50:33;;;;;;;17.15;9.65;;;;;;;8.79;58.78;92660.56;2068038;69;20290;-74
2022/02/19 08:52:59;;;;;;;19.05;11.63;;;;;;;8.86;56.61;92648.41;2068447;69;20222;-73
2022/02/19 08:55:25;;;;;;;8.20;6.10;;;;;;;8.93;55.57;92647.47;2068328;69;20133;-73
2022/02/19 08:57:51;;;;;;;7.05;4.40;;;;;;;9.37;54.97;92648.91;2068259;69;20214;-73
2022/02/19 09:00:17;;;;;;;3.00;1.83;;;;;;;9.76;51.78;92648.53;2068372;69;20148;-73
2022/02/19 09:02:43;;;;;;;6.38;3.22;;;;;;;9.80;48.97;92655.13;2068228;69;20152;-73
2022/02/19 09:05:12;;;;;;;11.23;5.75;;;;;;;10.16;51.37;92661.56;2067570;69;20145;-73
2022/02/19 09:07:41;;;;;;;10.07;5.50;;;;;;;10.69;52.73;92659.88;2067796;69;20145;-73
2022/02/19 09:10:09;;;;;;;6.93;4.28;;;;;;;10.98;48.92;92647.47;2056392;69;20135;-73
2022/02/19 09:12:35;;;;;;;4.43;2.55;;;;;;;11.40;48.14;92654.09;2052047;70;20236;-73
2022/02/19 09:15:02;;;;;;;3.38;2.22;;;;;;;11.76;47.48;92661.06;2052160;70;20138;-73
2022/02/19 09:17:27;;;;;;;4.93;2.20;;;;;;;12.10;46.57;92662.25;2052023;70;20145;-73
2022/02/19 09:19:53;;;;;;;2.38;1.70;;;;;;;12.65;44.72;92667.28;2052003;70;20241;-73
2022/02/19 09:22:18;;;;;;;1.17;1.00;;;;;;;13.06;43.16;92663.72;2052026;69;20208;-73
2022/02/19 09:24:44;;;;;;;2.80;1.08;;;;;;;13.24;38.84;92667.50;2051970;70;20134;-72
2022/02/19 09:27:10;;;;;;;1.38;0.50;;;;;;;12.97;36.70;92662.59;2051943;69;20134;-73
2022/02/19 09:29:35;;;;;;;2.72;0.57;;;;;;;13.40;35.72;92654.16;2052061;70;20222;-73
2022/02/19 09:32:01;;;;;;;3.95;1.05;;;;;;;12.91;35.98;92657.34;2052051;70;20178;-74
2022/02/19 09:34:27;;;;;;;2.72;0.60;;;;;;;13.62;38.04;92651.72;2064971;69;20612;-72
2022/02/19 09:36:53;;;;;;;1.63;0.60;;;;;;;13.21;37.20;92655.31;2064843;69;20197;-74
2022/02/19 09:39:19;;;;;;;0.75;0.50;;;;;;;14.80;35.52;92667.84;2052027;70;20296;-73
2022/02/19 09:41:46;;;;;;;4.75;0.50;;;;;;;14.96;35.97;92665.69;2052018;70;20592;-73
2022/02/19 09:44:12;;;;;;;0.82;0.40;;;;;;;15.18;34.04;92668.78;2051971;70;20665;-73
2022/02/19 09:46:38;;;;;;;0.80;0.47;;;;;;;15.74;34.11;92655.53;2052007;70;20154;-73
2022/02/19 09:49:05;;;;;;;0.95;0.35;;;;;;;15.59;33.86;92664.09;2051918;70;20599;-72
2022/02/19 09:51:32;;;;;;;0.95;0.30;;;;;;;16.48;32.43;92658.44;2051841;70;20660;-73
2022/02/19 09:53:57;;;;;;;0.40;0.38;;;;;;;16.85;30.90;92663.41;2064923;69;20150;-72
2022/02/19 09:56:27;;;;;;;1.02;0.60;;;;;;;16.61;27.57;92657.53;2051961;70;20157;-72
2022/02/19 09:58:58;;;;;;;1.10;0.60;;;;;;;16.75;27.60;92649.56;2052085;70;20146;-72
2022/02/19 10:01:26;;;;;;;1.80;0.45;;;;;;;17.38;29.11;92651.09;2051903;70;20150;-73
2022/02/19 10:03:58;;;;;;;7.53;3.50;;;;;;;17.16;28.69;92658.84;2052023;70;20789;-73
2022/02/19 10:06:35;;;;;;;3.55;2.50;;;;;;;16.37;28.78;92657.31;2051814;70;20618;-75
2022/02/19 10:09:08;;;;;;;3.42;0.77;;;;;;;15.91;28.98;92659.78;2051905;69;20162;-73
2022/02/19 10:11:35;;;;;;;2.65;1.40;;;;;;;16.49;27.81;92646.44;2051949;69;20150;-73
2022/02/19 10:14:19;;;;;;;3.55;0.93;;;;;;;17.74;29.87;92656.59;2064824;69;20301;-73
2022/02/19 10:17:03;;;;;;;3.63;2.40;;;;;;;16.13;27.74;92651.44;2051868;70;20293;-73
2022/02/19 10:19:29;;;;;;;0.95;0.77;;;;;;;15.48;27.08;92662.94;2052417;69;20166;-73
2022/02/19 10:22:11;;;;;;;2.30;0.32;;;;;;;15.65;27.17;92650.91;2052379;70;20222;-72
2022/02/19 10:24:53;;;;;;;0.88;0.50;;;;;;;16.98;27.81;92653.22;2052307;70;20158;-72
2022/02/19 10:27:20;;;;;;;1.90;0.98;;;;;;;16.63;27.91;92666.13;2065140;69;20526;-72
2022/02/19 10:29:54;;;;;;;2.08;0.40;;;;;;;16.55;27.01;92657.31;2052367;70;20517;-72
2022/02/19 10:32:22;;;;;;;0.85;0.40;;;;;;;16.46;24.63;92653.41;2052434;69;20188;-72
2022/02/19 10:35:03;;;;;;;1.05;0.20;;;;;;;15.79;25.92;92659.28;2052230;70;20225;-72
2022/02/19 10:37:29;;;;;;;2.35;1.48;;;;;;;16.97;24.53;92654.59;2052365;70;20178;-72
2022/02/19 10:39:57;;;;;;;0.73;0.43;;;;;;;16.38;24.81;92663.72;2052353;69;20245;-72
2022/02/19 10:42:36;;;;;;;0.68;0.30;;;;;;;15.66;25.56;92657.31;2052373;70;20200;-72
2022/02/19 10:45:09;;;;;;;0.50;0.45;;;;;;;15.47;26.34;92664.31;2052354;69;20146;-72
2022/02/19 10:47:35;;;;;;;1.55;0.82;;;;;;;15.15;25.96;92670.06;2052383;69;20170;-72
2022/02/19 10:50:09;;;;;;;1.38;0.40;;;;;;;14.96;24.76;92674.19;2052194;69;20165;-72
2022/02/19 10:52:37;;;;;;;0.60;0.60;;;;;;;13.65;26.08;92667.44;2052333;70;20148;-73
2022/02/19 10:55:07;;;;;;;5.18;3.40;;;;;;;14.60;25.87;92667.63;2052394;69;20169;-72
2022/02/19 10:57:43;;;;;;;0.98;0.38;;;;;;;14.58;25.79;92664.72;2052321;70;20639;-72
2022/02/19 11:00:14;;;;;;;0.90;0.20;;;;;;;14.94;25.91;92659.94;2052333;70;20517;-71
2022/02/19 11:02:40;;;;;;;0.17;0.17;;;;;;;14.31;26.23;92665.56;2052282;70;20169;-72
2022/02/19 11:05:10;;;;;;;0.28;0.20;;;;;;;15.41;26.44;92661.97;2052205;70;20536;-72
2022/02/19 11:07:37;;;;;;;0.47;0.17;;;;;;;17.49;25.96;92652.16;2052354;69;20157;-72
2022/02/19 11:10:06;;;;;;;0.73;0.30;;;;;;;16.81;24.76;92651.16;2052262;69;20545;-72
2022/02/19 11:12:32;;;;;;;0.13;0.13;;;;;;;17.85;24.61;92652.69;2052329;70;20143;-72
2022/02/19 11:14:58;;;;;;;0.32;0.20;;;;;;;19.15;23.62;92656.00;2052285;70;20154;-73
2022/02/19 11:17:24;;;;;;;3.63;0.30;;;;;;;18.90;22.74;92653.81;2052258;70;20247;-73
2022/02/19 11:19:49;;;;;;;0.10;0.10;;;;;;;19.22;20.32;92651.91;2052152;70;20229;-73
2022/02/19 11:22:19;;;;;;;0.47;0.20;;;;;;;19.20;21.72;92646.16;2052308;70;20163;-72
2022/02/19 11:24:45;;;;;;;0.57;0.50;;;;;;;17.52;22.09;92648.00;2052279;69;20142;-73
2022/02/19 11:27:13;;;;;;;0.32;0.32;;;;;;;17.97;22.02;92652.38;2052295;69;20564;-73
2022/02/19 11:29:39;;;;;;;1.55;0.40;;;;;;;19.65;22.75;92650.22;2052238;69;20226;-75
2022/02/19 11:32:06;;;;;;;0.95;0.10;;;;;;;20.01;21.08;92641.88;2065224;69;20143;-72
2022/02/19 11:34:32;;;;;;;0.60;0.17;;;;;;;21.09;20.05;92635.06;2052305;70;20145;-74
2022/02/19 11:37:13;;;;;;;0.50;0.20;;;;;;;19.13;19.41;92626.66;2052132;70;20162;-72
2022/02/19 11:40:01;;;;;;;0.10;0.10;;;;;;;21.36;20.31;92633.47;2052345;70;20182;-72
2022/02/19 11:42:47;;;;;;;0.15;0.03;;;;;;;20.56;18.70;92640.34;2052252;70;20142;-77
2022/02/19 11:45:16;;;;;;;0.47;0.30;;;;;;;20.48;20.38;92639.41;2052391;70;20146;-72
2022/02/19 11:47:43;;;;;;;0.38;0.25;;;;;;;18.98;21.76;92637.69;2052251;69;20192;-73
2022/02/19 11:50:18;;;;;;;1.70;0.30;;;;;;;17.68;21.65;92627.88;2052200;70;20589;-73
2022/02/19 11:52:45;;;;;;;0.30;0.20;;;;;;;19.15;21.94;92623.84;2052252;69;20145;-72
2022/02/19 11:55:29;;;;;;;1.90;0.30;;;;;;;17.30;21.27;92616.66;2052204;69;20184;-74
2022/02/19 11:58:09;;;;;;;0.10;0.10;;;;;;;17.84;22.47;92627.75;2065170;69;20512;-72
2022/02/19 12:00:53;;;;;;;0.40;0.20;;;;;;;21.26;21.46;92631.09;2052231;70;20233;-73